Time;durP1;ratioP1;P1;durP2;ratioP2;P2;SDS_P1;SDS_P2;PMS_P1;PMS_P2;Temp;Humidity;BMP_temperature;BMP_pressure;BME280_temperature;BME280_humidity;BME280_pressure;Samples;Min_cycle;Max_cycle;Signal;HPM_P1;HPM_P2
2021/05/07 00:00:35;;;;;;;3.03;1.25;;;18.20;37.10;;;;;;5096513;28;20116;-67
2021/05/07 00:03:01;;;;;;;3.28;1.40;;;18.20;37.00;;;;;;5096234;28;20048;-67
2021/05/07 00:05:27;;;;;;;3.53;1.23;;;18.20;37.10;;;;;;5096432;28;20046;-67
2021/05/07 00:07:52;;;;;;;2.42;1.10;;;18.20;37.10;;;;;;5095903;28;20020;-67
2021/05/07 00:10:18;;;;;;;2.55;1.10;;;18.10;37.10;;;;;;5096198;28;20034;-67
2021/05/07 00:12:44;;;;;;;3.47;1.30;;;18.10;37.10;;;;;;5094833;28;20026;-67
2021/05/07 00:15:11;;;;;;;2.60;1.20;;;18.10;37.10;;;;;;5095663;28;20479;-67
2021/05/07 00:17:36;;;;;;;2.70;1.30;;;18.20;37.10;;;;;;5095802;28;20444;-67
2021/05/07 00:20:04;;;;;;;3.35;1.38;;;18.10;37.10;;;;;;5095935;28;20099;-67
2021/05/07 00:22:29;;;;;;;3.55;1.23;;;18.10;37.20;;;;;;5094617;28;20506;-67
2021/05/07 00:24:55;;;;;;;3.05;1.52;;;18.10;37.20;;;;;;5095956;28;20052;-67
2021/05/07 00:27:20;;;;;;;3.33;1.35;;;18.10;37.10;;;;;;5095572;28;20047;-67
2021/05/07 00:29:46;;;;;;;3.60;1.40;;;18.10;37.20;;;;;;5095900;28;20103;-67
2021/05/07 00:32:13;;;;;;;2.20;1.00;;;18.10;37.20;;;;;;5095574;28;20024;-67
2021/05/07 00:34:38;;;;;;;4.13;1.52;;;18.10;37.20;;;;;;5095677;28;20039;-67
2021/05/07 00:37:04;;;;;;;2.92;1.40;;;18.10;37.20;;;;;;5095636;28;20016;-67
2021/05/07 00:39:30;;;;;;;2.53;1.20;;;18.10;37.20;;;;;;5095720;28;20383;-67
2021/05/07 00:42:02;;;;;;;2.53;1.45;;;18.10;37.20;;;;;;5095744;28;20495;-67
2021/05/07 00:44:28;;;;;;;3.22;1.40;;;18.10;37.20;;;;;;5095745;28;20016;-67
2021/05/07 00:46:54;;;;;;;2.97;1.30;;;18.00;37.20;;;;;;5095482;28;20544;-67
2021/05/07 00:49:20;;;;;;;3.28;1.58;;;18.10;37.20;;;;;;5095921;28;20024;-67
2021/05/07 00:51:46;;;;;;;3.05;1.45;;;18.00;37.30;;;;;;5099240;28;20062;-69
2021/05/07 00:54:11;;;;;;;3.80;1.67;;;18.00;37.30;;;;;;5106496;28;20114;-68
2021/05/07 00:56:37;;;;;;;2.83;1.40;;;18.00;37.30;;;;;;5105967;28;20035;-69
2021/05/07 00:59:03;;;;;;;3.42;1.50;;;18.00;37.30;;;;;;5105192;28;20027;-68
2021/05/07 01:01:31;;;;;;;2.88;1.50;;;18.00;37.30;;;;;;5107149;28;20038;-67
2021/05/07 01:03:56;;;;;;;3.50;1.58;;;18.00;37.30;;;;;;5104887;28;20024;-68
2021/05/07 01:06:22;;;;;;;5.22;1.85;;;18.00;37.30;;;;;;5104807;28;20533;-68
2021/05/07 01:08:48;;;;;;;4.95;1.63;;;18.00;37.30;;;;;;5104566;28;20020;-68
2021/05/07 01:11:14;;;;;;;4.28;1.85;;;18.00;37.30;;;;;;5095383;28;20073;-67
2021/05/07 01:13:39;;;;;;;3.00;1.40;;;18.00;37.40;;;;;;5095010;28;20027;-67
2021/05/07 01:16:07;;;;;;;3.22;1.40;;;18.00;37.40;;;;;;5095355;28;20024;-67
2021/05/07 01:18:32;;;;;;;2.97;1.40;;;18.00;37.40;;;;;;5095031;28;20048;-67
2021/05/07 01:20:58;;;;;;;3.10;1.38;;;18.00;37.40;;;;;;5094926;28;20048;-67
2021/05/07 01:23:23;;;;;;;3.08;1.50;;;18.00;37.30;;;;;;5094796;28;20066;-67
2021/05/07 01:25:50;;;;;;;3.17;1.70;;;18.00;37.40;;;;;;5095060;28;20384;-67
2021/05/07 01:28:16;;;;;;;3.88;1.80;;;18.00;37.40;;;;;;5094735;28;20028;-67
2021/05/07 01:30:43;;;;;;;3.58;1.55;;;18.00;37.40;;;;;;5094676;28;20430;-67
2021/05/07 01:33:13;;;;;;;3.53;1.52;;;18.00;37.40;;;;;;5094883;28;20032;-67
2021/05/07 01:35:41;;;;;;;3.35;1.42;;;18.00;37.40;;;;;;5094514;28;20063;-67
2021/05/07 01:38:14;;;;;;;5.25;1.80;;;18.00;37.40;;;;;;5094219;28;20057;-67
2021/05/07 01:40:45;;;;;;;3.50;1.70;;;18.00;37.40;;;;;;5094319;28;20107;-67
2021/05/07 01:43:11;;;;;;;2.80;1.55;;;18.00;37.40;;;;;;5094375;28;20039;-68
2021/05/07 01:45:40;;;;;;;3.33;1.60;;;18.00;37.40;;;;;;5094828;28;20456;-68
2021/05/07 01:48:06;;;;;;;3.25;1.60;;;18.00;37.40;;;;;;5094616;28;20024;-68
2021/05/07 01:50:35;;;;;;;3.55;1.75;;;18.00;37.40;;;;;;5094341;28;20055;-67
2021/05/07 01:53:01;;;;;;;4.32;1.58;;;18.00;37.40;;;;;;5094465;28;20154;-67
2021/05/07 01:55:32;;;;;;;4.53;2.10;;;18.00;37.50;;;;;;5094307;28;20039;-67
2021/05/07 01:57:59;;;;;;;4.35;1.80;;;18.00;37.40;;;;;;5094184;28;20472;-67
2021/05/07 02:00:27;;;;;;;4.50;1.85;;;18.00;37.40;;;;;;5094375;28;20027;-68
2021/05/07 02:02:54;;;;;;;4.38;1.60;;;17.90;37.50;;;;;;5093987;28;20102;-68
2021/05/07 02:05:21;;;;;;;4.65;2.03;;;17.90;37.50;;;;;;5093323;28;20036;-68
2021/05/07 02:07:47;;;;;;;4.00;1.85;;;17.90;37.50;;;;;;5094100;28;20031;-67
2021/05/07 02:10:16;;;;;;;4.75;1.92;;;18.00;37.60;;;;;;5094024;28;20448;-68
2021/05/07 02:12:42;;;;;;;3.97;1.80;;;17.90;37.60;;;;;;5093867;28;20020;-69
2021/05/07 02:15:11;;;;;;;4.93;2.00;;;17.90;37.50;;;;;;5093544;28;20038;-68
2021/05/07 02:17:36;;;;;;;5.47;2.30;;;17.90;37.60;;;;;;5093904;28;20028;-67
2021/05/07 02:20:03;;;;;;;4.60;2.03;;;17.90;37.60;;;;;;5093886;28;20034;-67
2021/05/07 02:22:29;;;;;;;5.32;2.25;;;17.90;37.60;;;;;;5093689;28;20028;-67
2021/05/07 02:24:54;;;;;;;4.85;2.08;;;17.90;37.60;;;;;;5093777;28;20044;-67
2021/05/07 02:27:20;;;;;;;4.18;2.13;;;17.90;37.60;;;;;;5093755;28;20408;-67
2021/05/07 02:29:45;;;;;;;3.95;1.92;;;17.90;37.50;;;;;;5093839;28;20063;-68
2021/05/07 02:32:11;;;;;;;4.85;2.00;;;18.00;37.60;;;;;;5093560;28;20024;-68
2021/05/07 02:34:36;;;;;;;4.78;2.10;;;17.90;37.50;;;;;;5093307;28;20063;-67
2021/05/07 02:37:02;;;;;;;4.85;2.10;;;17.90;37.60;;;;;;5092374;28;20020;-67
2021/05/07 02:39:27;;;;;;;5.50;2.20;;;17.90;37.60;;;;;;5094028;28;20028;-67
2021/05/07 02:41:53;;;;;;;4.55;2.13;;;17.90;37.70;;;;;;5093563;28;20054;-67
2021/05/07 02:44:19;;;;;;;4.18;2.05;;;17.80;37.70;;;;;;5093609;28;20055;-67
2021/05/07 02:46:44;;;;;;;4.03;2.10;;;17.90;37.70;;;;;;5093576;28;20048;-68
2021/05/07 02:49:10;;;;;;;4.22;2.00;;;17.90;37.70;;;;;;5093683;28;20036;-68
2021/05/07 02:51:35;;;;;;;5.25;2.25;;;17.80;37.70;;;;;;5093107;28;20020;-67
2021/05/07 02:54:01;;;;;;;3.80;1.83;;;17.90;37.70;;;;;;5093585;28;20113;-67
2021/05/07 02:56:27;;;;;;;4.72;1.90;;;17.80;37.80;;;;;;5093296;28;20097;-67
2021/05/07 02:58:53;;;;;;;4.90;2.03;;;17.80;37.80;;;;;;5093098;28;20480;-67
2021/05/07 03:01:19;;;;;;;4.90;2.33;;;17.80;37.70;;;;;;5093091;28;20036;-67
2021/05/07 03:03:45;;;;;;;4.70;2.10;;;17.80;37.80;;;;;;5093094;28;20061;-67
2021/05/07 03:06:10;;;;;;;4.20;1.73;;;17.80;37.80;;;;;;5093244;28;20028;-67
2021/05/07 03:08:37;;;;;;;4.95;2.20;;;17.80;37.80;;;;;;5093078;28;20031;-67
2021/05/07 03:11:03;;;;;;;4.97;2.25;;;17.90;37.80;;;;;;5093441;28;20028;-67
2021/05/07 03:13:29;;;;;;;4.88;2.17;;;17.80;37.80;;;;;;5093234;28;20035;-67
2021/05/07 03:15:54;;;;;;;4.63;2.28;;;17.80;37.80;;;;;;5095251;28;20032;-68
2021/05/07 03:18:21;;;;;;;4.43;2.00;;;17.80;37.80;;;;;;5097680;28;20026;-67
2021/05/07 03:20:48;;;;;;;5.22;2.47;;;17.80;37.80;;;;;;5097416;28;20105;-67
2021/05/07 03:23:14;;;;;;;3.95;1.95;;;17.80;37.80;;;;;;5097169;28;20407;-67
2021/05/07 03:25:40;;;;;;;4.68;2.03;;;17.80;37.80;;;;;;5097139;28;20023;-67
2021/05/07 03:28:07;;;;;;;5.45;2.25;;;17.80;37.80;;;;;;5097107;28;20103;-67
2021/05/07 03:30:34;;;;;;;4.85;2.17;;;17.80;37.80;;;;;;5096602;28;20424;-67
2021/05/07 03:33:02;;;;;;;3.67;2.08;;;17.80;37.90;;;;;;5096779;28;20067;-67
2021/05/07 03:35:27;;;;;;;4.32;1.90;;;17.70;37.90;;;;;;5096711;28;20542;-67
2021/05/07 03:37:53;;;;;;;4.88;2.20;;;17.80;37.90;;;;;;5096750;28;20051;-67
2021/05/07 03:40:20;;;;;;;5.45;2.40;;;17.80;37.80;;;;;;5097322;28;20028;-67
2021/05/07 03:42:46;;;;;;;5.28;2.30;;;17.80;37.90;;;;;;5096841;28;20054;-67
2021/05/07 03:45:13;;;;;;;4.35;2.03;;;17.80;37.90;;;;;;5096759;28;20106;-67
2021/05/07 03:47:39;;;;;;;4.55;2.35;;;17.70;37.90;;;;;;5096875;28;20020;-67
2021/05/07 03:50:06;;;;;;;4.38;2.20;;;17.70;37.90;;;;;;5096363;28;20039;-68
2021/05/07 03:52:32;;;;;;;4.95;2.38;;;17.70;37.90;;;;;;5096604;28;20020;-67
2021/05/07 03:54:57;;;;;;;4.85;2.00;;;17.70;37.90;;;;;;5096609;28;20035;-67
2021/05/07 03:57:24;;;;;;;4.15;1.90;;;17.70;37.90;;;;;;5096603;28;20012;-67
2021/05/07 03:59:50;;;;;;;4.57;2.22;;;17.70;37.90;;;;;;5096586;28;20024;-67
2021/05/07 04:02:15;;;;;;;5.43;2.45;;;17.70;37.90;;;;;;5096338;28;20070;-68
2021/05/07 04:04:43;;;;;;;6.13;2.30;;;17.70;38.00;;;;;;5096455;28;20028;-68
2021/05/07 04:07:09;;;;;;;3.70;1.92;;;17.70;37.90;;;;;;5094874;28;20024;-68
2021/05/07 04:09:38;;;;;;;3.78;1.90;;;17.70;37.90;;;;;;5094754;28;20586;-68
2021/05/07 04:12:17;;;;;;;3.88;1.90;;;17.70;37.90;;;;;;5096302;28;20062;-68
2021/05/07 04:14:43;;;;;;;5.22;2.10;;;17.70;38.00;;;;;;5096058;28;20479;-67
2021/05/07 04:17:08;;;;;;;5.25;2.10;;;17.70;38.00;;;;;;5096180;28;20035;-68
2021/05/07 04:19:34;;;;;;;4.28;1.90;;;17.70;38.00;;;;;;5096456;28;20032;-68
2021/05/07 04:22:00;;;;;;;4.43;2.30;;;17.70;37.90;;;;;;5096130;28;20028;-67
2021/05/07 04:24:25;;;;;;;4.95;2.28;;;17.70;38.00;;;;;;5099369;28;20062;-68
2021/05/07 04:26:52;;;;;;;4.60;2.20;;;17.70;38.00;;;;;;5103597;28;20020;-68
2021/05/07 04:29:21;;;;;;;3.50;1.60;;;17.70;37.90;;;;;;5098347;28;20595;-68
2021/05/07 04:31:47;;;;;;;3.65;1.88;;;17.70;38.00;;;;;;5096497;28;20020;-67
2021/05/07 04:34:13;;;;;;;4.35;1.67;;;17.80;37.90;;;;;;5096298;28;20047;-67
2021/05/07 04:36:38;;;;;;;4.32;2.05;;;17.70;38.00;;;;;;5096364;28;20032;-68
2021/05/07 04:39:04;;;;;;;4.00;1.92;;;17.70;37.90;;;;;;5095755;28;20118;-67
2021/05/07 04:41:30;;;;;;;3.55;1.95;;;17.70;37.90;;;;;;5096386;28;20028;-68
2021/05/07 04:43:55;;;;;;;4.25;2.15;;;17.70;37.90;;;;;;5096240;28;20027;-67
2021/05/07 04:46:21;;;;;;;4.60;2.10;;;17.70;37.90;;;;;;5096271;28;20020;-67
2021/05/07 04:48:47;;;;;;;4.55;2.00;;;17.70;37.80;;;;;;5095878;28;20035;-67
2021/05/07 04:51:12;;;;;;;4.40;1.88;;;17.70;37.90;;;;;;5095897;28;20111;-67
2021/05/07 04:53:38;;;;;;;4.90;2.08;;;17.70;38.00;;;;;;5096637;28;20024;-67
2021/05/07 04:56:03;;;;;;;5.10;2.25;;;17.70;38.00;;;;;;5096149;28;20391;-67
2021/05/07 04:58:29;;;;;;;6.82;2.30;;;17.70;37.90;;;;;;5096112;28;20032;-67
2021/05/07 05:00:54;;;;;;;3.80;1.60;;;17.70;38.00;;;;;;5096000;28;20024;-67
2021/05/07 05:03:20;;;;;;;4.60;2.03;;;17.70;38.00;;;;;;5096287;28;20028;-67
2021/05/07 05:05:45;;;;;;;4.72;1.80;;;17.70;37.90;;;;;;5096160;28;20107;-67
2021/05/07 05:08:11;;;;;;;4.30;1.88;;;17.70;38.00;;;;;;5103170;28;20028;-68
2021/05/07 05:10:36;;;;;;;3.33;1.75;;;17.60;38.00;;;;;;5103911;28;20058;-68
2021/05/07 05:13:03;;;;;;;4.97;2.00;;;17.70;38.00;;;;;;5099644;28;20108;-67
2021/05/07 05:15:28;;;;;;;3.50;1.63;;;17.60;38.00;;;;;;5095721;28;20484;-67
2021/05/07 05:17:54;;;;;;;5.25;1.90;;;17.70;37.90;;;;;;5096054;28;20024;-67
2021/05/07 05:20:19;;;;;;;3.85;1.98;;;17.70;38.00;;;;;;5095599;28;20028;-67
2021/05/07 05:22:46;;;;;;;4.13;1.80;;;17.70;38.00;;;;;;5095308;28;20512;-67
2021/05/07 05:25:12;;;;;;;4.28;1.73;;;17.70;37.90;;;;;;5095045;28;20493;-67
2021/05/07 05:27:38;;;;;;;4.35;2.00;;;17.60;38.00;;;;;;5094538;28;20027;-67
2021/05/07 05:30:05;;;;;;;4.47;2.00;;;17.60;38.00;;;;;;5094768;28;20027;-67
2021/05/07 05:32:31;;;;;;;4.45;2.00;;;17.60;37.90;;;;;;5094957;28;20494;-67
2021/05/07 05:34:57;;;;;;;3.65;1.88;;;17.70;38.00;;;;;;5094946;28;20471;-67
2021/05/07 05:37:22;;;;;;;4.30;1.83;;;17.70;38.00;;;;;;5094849;28;20026;-67
2021/05/07 05:39:48;;;;;;;3.38;1.70;;;17.70;38.00;;;;;;5094671;28;20478;-67
2021/05/07 05:42:13;;;;;;;4.57;1.75;;;17.70;38.00;;;;;;5094601;28;20050;-67
2021/05/07 05:44:39;;;;;;;3.78;1.77;;;17.60;38.00;;;;;;5093480;28;20028;-67
2021/05/07 05:47:05;;;;;;;3.95;1.63;;;17.70;38.00;;;;;;5094347;28;20016;-67
2021/05/07 05:49:30;;;;;;;4.30;1.65;;;17.60;38.00;;;;;;5094613;28;20024;-67
2021/05/07 05:51:56;;;;;;;3.75;1.73;;;17.60;38.00;;;;;;5094287;28;20065;-67
2021/05/07 05:54:22;;;;;;;3.70;1.63;;;17.60;38.00;;;;;;5094628;28;20063;-67
2021/05/07 05:56:48;;;;;;;3.95;1.75;;;17.70;38.00;;;;;;5094433;28;20024;-67
2021/05/07 05:59:13;;;;;;;3.47;1.63;;;17.70;38.00;;;;;;5092898;28;20031;-67
2021/05/07 06:01:39;;;;;;;4.07;1.70;;;17.60;38.00;;;;;;5094208;28;20446;-67
2021/05/07 06:04:05;;;;;;;4.05;1.90;;;17.60;38.00;;;;;;5094131;28;20107;-68
2021/05/07 06:06:30;;;;;;;4.35;2.00;;;17.60;38.00;;;;;;5094131;28;20502;-67
2021/05/07 06:08:56;;;;;;;4.90;2.00;;;17.60;38.00;;;;;;5093909;28;20062;-67
2021/05/07 06:11:21;;;;;;;4.40;1.60;;;17.60;38.10;;;;;;5093940;28;20044;-67
2021/05/07 06:13:47;;;;;;;4.35;1.73;;;17.60;38.00;;;;;;5093969;28;20106;-67
2021/05/07 06:16:12;;;;;;;3.25;1.48;;;17.60;38.00;;;;;;5093848;28;20406;-67
2021/05/07 06:18:38;;;;;;;3.38;1.60;;;17.60;38.10;;;;;;5093874;28;20024;-67
2021/05/07 06:21:04;;;;;;;3.75;1.52;;;17.60;38.10;;;;;;5093962;28;20030;-67
2021/05/07 06:23:30;;;;;;;4.90;1.80;;;17.60;38.10;;;;;;5093331;28;20077;-67
2021/05/07 06:25:55;;;;;;;3.70;1.75;;;17.60;38.00;;;;;;5092630;28;20028;-67
2021/05/07 06:28:21;;;;;;;3.35;1.50;;;17.60;38.10;;;;;;5093342;28;20336;-67
2021/05/07 06:30:46;;;;;;;4.65;1.80;;;17.60;38.00;;;;;;5093492;28;20468;-67
2021/05/07 06:33:12;;;;;;;3.30;1.77;;;17.60;38.10;;;;;;5094152;28;20099;-67
2021/05/07 06:35:37;;;;;;;3.85;1.50;;;17.60;38.00;;;;;;5093705;28;20051;-67
2021/05/07 06:38:10;;;;;;;4.20;1.73;;;17.60;38.00;;;;;;5093706;28;20020;-67
2021/05/07 06:40:36;;;;;;;3.28;1.50;;;17.60;38.00;;;;;;5093517;28;20043;-67
2021/05/07 06:43:03;;;;;;;3.58;1.55;;;17.60;37.90;;;;;;5093363;28;20032;-68
2021/05/07 06:45:29;;;;;;;3.83;1.52;;;17.60;38.00;;;;;;5093435;28;20099;-69
2021/05/07 06:47:54;;;;;;;3.90;1.52;;;17.60;37.90;;;;;;5093579;28;20455;-66
2021/05/07 06:50:21;;;;;;;3.92;1.45;;;17.60;38.00;;;;;;5093275;28;20024;-67
2021/05/07 06:52:47;;;;;;;2.90;1.30;;;17.60;37.90;;;;;;5092275;28;20430;-69
2021/05/07 06:55:13;;;;;;;4.30;1.48;;;17.60;38.00;;;;;;5093681;28;20089;-68
2021/05/07 06:57:40;;;;;;;4.15;1.80;;;17.60;37.90;;;;;;5092244;28;20043;-69
2021/05/07 07:00:07;;;;;;;3.88;1.60;;;17.60;38.00;;;;;;5093502;28;20060;-69
2021/05/07 07:02:34;;;;;;;3.35;1.40;;;17.60;37.90;;;;;;5093271;28;20031;-69
2021/05/07 07:04:59;;;;;;;3.40;1.45;;;17.60;37.90;;;;;;5093261;28;20510;-68
2021/05/07 07:07:26;;;;;;;3.33;1.40;;;17.50;38.00;;;;;;5093692;28;20016;-68
2021/05/07 07:09:52;;;;;;;4.63;1.70;;;17.60;38.00;;;;;;5093476;28;20024;-68
2021/05/07 07:12:18;;;;;;;3.33;1.30;;;17.50;38.00;;;;;;5093346;28;20380;-69
2021/05/07 07:14:43;;;;;;;4.93;1.80;;;17.60;37.90;;;;;;5093258;28;20032;-69
2021/05/07 07:17:09;;;;;;;2.63;1.20;;;17.50;37.90;;;;;;5093520;28;20316;-68
2021/05/07 07:19:35;;;;;;;4.30;1.92;;;17.50;38.00;;;;;;5093510;28;20422;-68
2021/05/07 07:22:02;;;;;;;3.78;1.45;;;17.50;37.90;;;;;;5093726;28;20018;-69
2021/05/07 07:24:28;;;;;;;4.65;1.70;;;17.50;38.00;;;;;;5093448;28;20044;-68
2021/05/07 07:26:54;;;;;;;2.75;1.30;;;17.50;37.90;;;;;;5098686;28;20487;-68
2021/05/07 07:29:20;;;;;;;2.92;1.27;;;17.50;37.90;;;;;;5097952;28;20072;-69
2021/05/07 07:31:46;;;;;;;3.58;1.58;;;17.50;38.00;;;;;;5104200;28;20024;-70
2021/05/07 07:34:11;;;;;;;2.60;1.30;;;17.50;38.00;;;;;;5103951;28;20020;-70
2021/05/07 07:36:38;;;;;;;3.17;1.38;;;17.50;37.90;;;;;;5103942;28;20024;-69
2021/05/07 07:39:04;;;;;;;2.67;1.30;;;17.60;37.90;;;;;;5104495;28;20020;-68
2021/05/07 07:41:29;;;;;;;3.78;1.33;;;17.50;37.90;;;;;;5102694;28;20027;-68
2021/05/07 07:43:55;;;;;;;2.95;1.42;;;17.50;37.90;;;;;;5102602;28;20027;-67
2021/05/07 07:46:20;;;;;;;2.10;1.20;;;17.50;37.80;;;;;;5100884;28;20032;-68
2021/05/07 07:48:46;;;;;;;2.85;1.35;;;17.60;37.80;;;;;;5093129;28;20107;-68
2021/05/07 07:51:11;;;;;;;2.20;1.05;;;17.60;37.70;;;;;;5091569;28;20054;-68
2021/05/07 07:53:37;;;;;;;3.05;1.25;;;17.60;37.70;;;;;;5092900;28;20024;-68
2021/05/07 07:56:03;;;;;;;2.45;1.20;;;17.60;37.70;;;;;;5093185;28;20028;-68
2021/05/07 07:58:28;;;;;;;4.05;1.50;;;17.60;37.70;;;;;;5092837;28;20024;-67
2021/05/07 08:00:55;;;;;;;3.58;1.40;;;17.70;37.70;;;;;;5091455;28;20115;-68
2021/05/07 08:03:21;;;;;;;2.65;1.40;;;17.60;37.70;;;;;;5095076;28;20030;-68
2021/05/07 08:05:46;;;;;;;2.25;1.13;;;17.60;37.70;;;;;;5095947;28;20465;-68
2021/05/07 08:08:12;;;;;;;3.05;1.55;;;17.60;37.70;;;;;;5096305;28;20032;-67
2021/05/07 08:10:37;;;;;;;3.17;1.45;;;17.70;37.60;;;;;;5096101;28;20024;-68
2021/05/07 08:13:03;;;;;;;2.88;1.20;;;17.70;37.60;;;;;;5096277;28;20039;-67
2021/05/07 08:15:29;;;;;;;2.65;1.35;;;17.70;37.50;;;;;;5095910;28;20036;-68
2021/05/07 08:17:54;;;;;;;3.97;1.60;;;17.70;37.50;;;;;;5096133;28;20032;-68
2021/05/07 08:20:21;;;;;;;2.88;1.33;;;17.70;37.60;;;;;;5095778;28;20047;-68
2021/05/07 08:22:48;;;;;;;2.38;1.13;;;17.70;37.70;;;;;;5096013;28;20103;-67
2021/05/07 08:25:14;;;;;;;3.35;1.17;;;17.70;37.60;;;;;;5095697;28;20062;-68
2021/05/07 08:27:41;;;;;;;3.03;1.25;;;17.70;37.60;;;;;;5096014;28;20389;-68
2021/05/07 08:30:08;;;;;;;3.30;1.13;;;17.70;37.60;;;;;;5095678;28;20028;-68
2021/05/07 08:32:34;;;;;;;2.33;1.20;;;17.70;37.60;;;;;;5095857;28;20031;-68
2021/05/07 08:35:00;;;;;;;2.00;1.10;;;17.80;37.60;;;;;;5095451;28;20043;-68
2021/05/07 08:37:26;;;;;;;1.85;1.00;;;17.80;37.50;;;;;;5095371;28;20035;-68
2021/05/07 08:39:53;;;;;;;2.47;1.25;;;17.70;37.60;;;;;;5096280;28;20385;-67
2021/05/07 08:42:20;;;;;;;2.67;1.20;;;17.70;37.50;;;;;;5095645;28;20081;-68
2021/05/07 08:44:47;;;;;;;2.22;1.10;;;17.80;37.50;;;;;;5095377;28;20070;-68
2021/05/07 08:47:17;;;;;;;3.55;1.35;;;17.80;37.50;;;;;;5095492;28;20024;-68
2021/05/07 08:49:45;;;;;;;2.40;1.10;;;17.80;37.50;;;;;;5095130;28;20038;-68
2021/05/07 08:52:11;;;;;;;3.05;1.23;;;17.80;37.50;;;;;;5094896;28;20516;-68
2021/05/07 08:54:37;;;;;;;3.40;1.13;;;17.80;37.50;;;;;;5095297;28;20032;-67
2021/05/07 08:57:02;;;;;;;3.83;1.17;;;17.70;37.50;;;;;;5095094;28;20028;-68
2021/05/07 08:59:28;;;;;;;3.20;1.25;;;17.70;37.60;;;;;;5095307;28;20020;-68
2021/05/07 09:01:53;;;;;;;3.25;1.10;;;17.70;37.60;;;;;;5095434;28;20031;-68
2021/05/07 09:04:21;;;;;;;2.00;1.02;;;17.80;37.50;;;;;;5095093;28;20028;-68
2021/05/07 09:06:52;;;;;;;2.67;1.40;;;17.70;37.50;;;;;;5094973;28;20380;-68
2021/05/07 09:09:26;;;;;;;2.15;1.05;;;17.80;37.60;;;;;;5095077;28;20028;-68
2021/05/07 09:11:52;;;;;;;2.67;1.33;;;17.80;37.60;;;;;;5095006;28;20020;-68
2021/05/07 09:14:19;;;;;;;2.60;1.30;;;17.80;37.60;;;;;;5094249;28;20277;-68
2021/05/07 09:16:57;;;;;;;2.95;1.15;;;17.80;37.60;;;;;;5094675;28;20402;-68
2021/05/07 09:19:28;;;;;;;2.55;1.15;;;17.80;37.50;;;;;;5094731;28;20430;-68
2021/05/07 09:21:55;;;;;;;2.97;1.10;;;17.80;37.50;;;;;;5094487;28;20024;-68
2021/05/07 09:24:30;;;;;;;1.90;0.95;;;17.80;37.50;;;;;;5094192;28;20051;-68
2021/05/07 09:26:56;;;;;;;2.28;1.02;;;17.80;37.60;;;;;;5094511;28;20020;-68
2021/05/07 09:29:27;;;;;;;2.05;0.93;;;17.80;37.60;;;;;;5094772;28;20114;-67
2021/05/07 09:31:54;;;;;;;2.33;0.95;;;17.80;37.50;;;;;;5094486;28;20033;-68
2021/05/07 09:34:21;;;;;;;2.40;1.05;;;17.80;37.50;;;;;;5093063;28;20055;-68
2021/05/07 09:36:48;;;;;;;2.80;0.98;;;17.80;37.50;;;;;;5094030;28;20028;-68
2021/05/07 09:39:20;;;;;;;3.42;1.15;;;17.90;37.50;;;;;;5092488;28;20066;-69
2021/05/07 09:41:49;;;;;;;2.25;0.95;;;17.90;37.50;;;;;;5093885;28;20039;-68
2021/05/07 09:44:20;;;;;;;1.50;0.80;;;17.80;37.60;;;;;;5093619;28;20032;-68
2021/05/07 09:46:46;;;;;;;2.83;1.40;;;17.80;37.60;;;;;;5093486;28;20405;-68
2021/05/07 09:49:29;;;;;;;2.58;1.13;;;17.80;37.60;;;;;;5093882;28;20031;-68
2021/05/07 09:51:56;;;;;;;3.03;1.20;;;17.80;37.60;;;;;;5094262;28;20115;-68
2021/05/07 09:54:22;;;;;;;2.15;1.10;;;17.80;37.60;;;;;;5093657;28;20048;-68
2021/05/07 09:56:48;;;;;;;2.80;1.05;;;17.70;37.70;;;;;;5094148;28;20028;-68
2021/05/07 09:59:15;;;;;;;2.83;1.10;;;17.80;37.70;;;;;;5094030;28;20020;-68
2021/05/07 10:01:44;;;;;;;1.90;0.98;;;17.80;37.60;;;;;;5093883;28;20107;-68
2021/05/07 10:04:11;;;;;;;2.03;1.05;;;17.80;37.60;;;;;;5094114;28;20020;-68
2021/05/07 10:06:37;;;;;;;2.15;0.90;;;17.80;37.60;;;;;;5094071;28;20169;-68
2021/05/07 10:09:04;;;;;;;2.83;1.30;;;17.80;37.60;;;;;;5093947;28;20431;-67
2021/05/07 10:11:42;;;;;;;2.63;1.17;;;17.80;37.60;;;;;;5093554;28;20028;-68
2021/05/07 10:14:15;;;;;;;2.42;1.08;;;17.80;37.60;;;;;;5093886;28;20032;-68
2021/05/07 10:16:41;;;;;;;2.65;1.10;;;17.80;37.60;;;;;;5093865;28;20426;-68
2021/05/07 10:19:11;;;;;;;3.17;1.30;;;17.80;37.60;;;;;;5093551;28;20036;-69
2021/05/07 10:21:38;;;;;;;4.05;1.13;;;17.80;37.60;;;;;;5093545;28;20024;-67
2021/05/07 10:24:06;;;;;;;2.03;0.90;;;17.80;37.50;;;;;;5093450;28;20040;-67
2021/05/07 10:26:52;;;;;;;2.58;1.17;;;17.80;37.60;;;;;;5093361;28;20414;-68
2021/05/07 10:29:25;;;;;;;2.40;1.00;;;17.90;37.50;;;;;;5093735;28;20020;-68
2021/05/07 10:31:56;;;;;;;3.58;1.08;;;17.80;37.60;;;;;;5093625;28;20051;-67
2021/05/07 10:34:23;;;;;;;3.35;1.10;;;17.80;37.60;;;;;;5092029;28;20028;-68
2021/05/07 10:36:50;;;;;;;2.97;1.08;;;17.80;37.60;;;;;;5093273;28;20464;-68
2021/05/07 10:39:19;;;;;;;3.13;1.27;;;17.80;37.60;;;;;;5093311;28;20066;-68
2021/05/07 10:41:45;;;;;;;1.88;0.80;;;17.80;37.60;;;;;;5093331;28;20035;-68
2021/05/07 10:44:13;;;;;;;2.45;1.00;;;17.80;37.60;;;;;;5093485;28;20035;-68
2021/05/07 10:46:41;;;;;;;2.53;0.95;;;17.80;37.50;;;;;;5092890;28;20464;-68
2021/05/07 10:49:06;;;;;;;1.77;1.00;;;17.90;37.60;;;;;;5092998;28;20056;-68
2021/05/07 10:51:32;;;;;;;2.53;0.90;;;17.80;37.60;;;;;;5093298;28;20408;-68
2021/05/07 10:54:05;;;;;;;2.08;1.00;;;17.80;37.60;;;;;;5093191;28;20024;-68
2021/05/07 10:56:35;;;;;;;2.08;0.85;;;17.90;37.60;;;;;;5092797;28;20024;-68
2021/05/07 10:59:10;;;;;;;1.73;0.90;;;17.90;37.50;;;;;;5093530;28;20349;-68
2021/05/07 11:01:36;;;;;;;1.95;0.90;;;17.90;37.60;;;;;;5093631;28;20028;-67
2021/05/07 11:04:12;;;;;;;2.85;1.10;;;17.90;37.50;;;;;;5091739;28;20107;-68
2021/05/07 11:06:44;;;;;;;3.25;1.27;;;17.90;37.60;;;;;;5093037;28;20063;-68
2021/05/07 11:09:20;;;;;;;2.97;0.80;;;17.90;37.60;;;;;;5092937;28;20028;-68
2021/05/07 11:11:48;;;;;;;1.80;0.90;;;17.80;37.50;;;;;;5092750;28;20028;-67
2021/05/07 11:14:16;;;;;;;1.70;0.82;;;17.90;37.50;;;;;;5093040;28;20107;-68
2021/05/07 11:16:44;;;;;;;1.63;0.85;;;17.90;37.50;;;;;;5092801;28;20089;-68
2021/05/07 11:19:23;;;;;;;2.10;0.80;;;17.90;37.40;;;;;;5093093;28;20020;-68
2021/05/07 11:21:54;;;;;;;1.35;0.88;;;17.90;37.50;;;;;;5093014;28;20027;-67
2021/05/07 11:24:27;;;;;;;1.88;0.93;;;17.90;37.60;;;;;;5092805;28;20043;-68
2021/05/07 11:26:54;;;;;;;2.28;1.02;;;17.90;37.50;;;;;;5093084;28;20028;-68
2021/05/07 11:29:34;;;;;;;3.15;0.90;;;17.80;37.60;;;;;;5091211;28;20032;-68
2021/05/07 11:32:08;;;;;;;2.30;0.90;;;17.90;37.60;;;;;;5093095;28;20364;-68
2021/05/07 11:34:34;;;;;;;1.73;0.88;;;17.90;37.50;;;;;;5092675;28;20467;-68
2021/05/07 11:37:00;;;;;;;2.22;1.00;;;18.00;37.40;;;;;;5094709;28;20051;-67
2021/05/07 11:39:26;;;;;;;1.60;0.90;;;18.00;37.30;;;;;;5097009;28;20163;-68
2021/05/07 11:41:52;;;;;;;1.40;0.80;;;18.10;37.20;;;;;;5096724;28;20150;-68
2021/05/07 11:44:18;;;;;;;1.65;0.73;;;18.10;37.20;;;;;;5096573;28;20542;-68
2021/05/07 11:47:05;;;;;;;1.48;0.85;;;18.00;37.30;;;;;;5095244;28;20470;-68
2021/05/07 11:49:46;;;;;;;2.03;0.70;;;18.00;37.40;;;;;;5096305;28;20019;-68
2021/05/07 11:52:11;;;;;;;2.40;0.85;;;18.00;37.40;;;;;;5096850;28;20111;-68
2021/05/07 11:54:44;;;;;;;2.13;1.00;;;18.00;37.30;;;;;;5096546;28;20133;-68
2021/05/07 11:57:11;;;;;;;2.75;1.02;;;18.00;37.30;;;;;;5096476;28;20061;-67
2021/05/07 12:00:06;;;;;;;1.85;0.82;;;18.10;37.20;;;;;;5096443;28;20424;-67
2021/05/07 12:02:32;;;;;;;2.20;0.95;;;18.10;37.20;;;;;;5083047;28;20040;-68
2021/05/07 12:04:59;;;;;;;1.75;0.75;;;18.10;37.20;;;;;;5096467;28;20028;-68
2021/05/07 12:07:37;;;;;;;2.80;1.20;;;18.10;37.30;;;;;;5096106;28;20016;-68
2021/05/07 12:10:03;;;;;;;1.70;0.75;;;18.20;37.10;;;;;;5094403;28;20024;-68
2021/05/07 12:12:40;;;;;;;1.95;0.93;;;18.20;37.00;;;;;;5096088;28;20385;-68
2021/05/07 12:15:12;;;;;;;1.75;0.98;;;18.20;37.20;;;;;;5096073;28;20071;-68
2021/05/07 12:17:45;;;;;;;1.35;0.60;;;18.10;37.20;;;;;;5095911;28;20024;-68
2021/05/07 12:20:12;;;;;;;2.42;1.05;;;18.10;37.20;;;;;;5094550;28;20127;-67
2021/05/07 12:22:38;;;;;;;2.40;0.95;;;18.20;37.00;;;;;;5095705;28;20115;-68
2021/05/07 12:25:14;;;;;;;1.20;0.70;;;18.40;36.90;;;;;;5095750;28;20503;-67
2021/05/07 12:27:40;;;;;;;3.58;0.95;;;18.40;36.80;;;;;;5096175;28;20024;-68
2021/05/07 12:30:21;;;;;;;2.15;0.93;;;18.30;37.00;;;;;;5095976;28;20079;-68
2021/05/07 12:33:04;;;;;;;1.85;0.80;;;18.30;36.90;;;;;;5095599;28;20091;-68
2021/05/07 12:35:44;;;;;;;1.50;0.80;;;18.30;37.00;;;;;;5096043;28;20034;-68
2021/05/07 12:41:01;;;;;;;1.67;0.73;;;18.50;36.70;;;;;;5099388;28;20118;-68
2021/05/07 12:43:28;;;;;;;1.67;0.90;;;18.40;36.80;;;;;;5100291;28;20027;-68
2021/05/07 12:45:55;;;;;;;2.40;0.98;;;18.50;36.70;;;;;;5096237;28;20048;-67
2021/05/07 12:48:20;;;;;;;2.50;1.05;;;18.60;36.50;;;;;;5094890;28;20020;-68
2021/05/07 12:50:47;;;;;;;3.33;0.90;;;18.60;36.50;;;;;;5095033;28;20115;-68